sensor_id;sensor_type;location;lat;lon;timestamp;temperature;humidity
29007;DHT22;16104;48.642;9.008;2023-07-16T01:04:49;22.80;60.60
29007;DHT22;16104;48.642;9.008;2023-07-16T01:09:45;22.80;60.20
29007;DHT22;16104;48.642;9.008;2023-07-16T01:14:41;22.80;60.50
29007;DHT22;16104;48.642;9.008;2023-07-16T02:00:19;22.20;58.70
29007;DHT22;16104;48.642;9.008;2023-07-16T02:05:16;22.10;58.80
29007;DHT22;16104;48.642;9.008;2023-07-16T02:10:11;22.00;58.70
29007;DHT22;16104;48.642;9.008;2023-07-16T02:15:07;22.00;58.90
29007;DHT22;16104;48.642;9.008;2023-07-16T03:00:58;21.30;59.60
29007;DHT22;16104;48.642;9.008;2023-07-16T03:05:54;21.20;59.90
29007;DHT22;16104;48.642;9.008;2023-07-16T03:10:49;21.20;60.00
29007;DHT22;16104;48.642;9.008;2023-07-16T03:15:45;21.10;60.00
29007;DHT22;16104;48.642;9.008;2023-07-16T03:20:40;21.20;59.80
29007;DHT22;16104;48.642;9.008;2023-07-16T03:25:36;21.10;59.90
29007;DHT22;16104;48.642;9.008;2023-07-16T03:30:31;21.00;60.10
29007;DHT22;16104;48.642;9.008;2023-07-16T03:35:28;21.00;60.30
29007;DHT22;16104;48.642;9.008;2023-07-16T03:40:25;21.00;60.30
29007;DHT22;16104;48.642;9.008;2023-07-16T03:45:21;21.00;60.30
29007;DHT22;16104;48.642;9.008;2023-07-16T03:50:17;21.00;60.60
29007;DHT22;16104;48.642;9.008;2023-07-16T03:55:12;21.00;60.60
29007;DHT22;16104;48.642;9.008;2023-07-16T04:00:08;20.90;60.50
29007;DHT22;16104;48.642;9.008;2023-07-16T04:05:05;20.90;60.80
29007;DHT22;16104;48.642;9.008;2023-07-16T04:10:01;20.80;60.80
29007;DHT22;16104;48.642;9.008;2023-07-16T04:14:58;20.80;60.80
29007;DHT22;16104;48.642;9.008;2023-07-16T04:19:54;20.80;60.80
29007;DHT22;16104;48.642;9.008;2023-07-16T04:24:50;20.80;61.00
29007;DHT22;16104;48.642;9.008;2023-07-16T04:29:45;20.90;61.10
29007;DHT22;16104;48.642;9.008;2023-07-16T04:34:41;20.80;61.00
29007;DHT22;16104;48.642;9.008;2023-07-16T04:39:36;20.80;61.30
29007;DHT22;16104;48.642;9.008;2023-07-16T04:44:32;20.80;61.70
29007;DHT22;16104;48.642;9.008;2023-07-16T04:49:27;20.80;62.00
29007;DHT22;16104;48.642;9.008;2023-07-16T04:54:23;20.80;62.50
29007;DHT22;16104;48.642;9.008;2023-07-16T04:59:18;20.80;62.30
29007;DHT22;16104;48.642;9.008;2023-07-16T05:04:13;20.80;62.50
29007;DHT22;16104;48.642;9.008;2023-07-16T05:09:09;20.80;62.30
29007;DHT22;16104;48.642;9.008;2023-07-16T05:14:05;20.70;62.10
29007;DHT22;16104;48.642;9.008;2023-07-16T05:19:00;20.70;62.30
29007;DHT22;16104;48.642;9.008;2023-07-16T05:23:56;20.70;62.10
29007;DHT22;16104;48.642;9.008;2023-07-16T05:28:51;20.60;62.10
29007;DHT22;16104;48.642;9.008;2023-07-16T05:33:47;20.60;62.20
29007;DHT22;16104;48.642;9.008;2023-07-16T05:38:42;20.70;62.40
29007;DHT22;16104;48.642;9.008;2023-07-16T05:43:37;20.70;62.30
29007;DHT22;16104;48.642;9.008;2023-07-16T05:48:33;20.70;62.40
29007;DHT22;16104;48.642;9.008;2023-07-16T05:53:28;20.80;62.30
29007;DHT22;16104;48.642;9.008;2023-07-16T05:58:24;20.80;62.00
29007;DHT22;16104;48.642;9.008;2023-07-16T06:03:19;20.80;61.80
29007;DHT22;16104;48.642;9.008;2023-07-16T06:08:15;20.70;61.60
29007;DHT22;16104;48.642;9.008;2023-07-16T06:13:11;20.70;61.30
29007;DHT22;16104;48.642;9.008;2023-07-16T06:18:06;20.70;61.40
29007;DHT22;16104;48.642;9.008;2023-07-16T06:23:02;20.70;61.50
29007;DHT22;16104;48.642;9.008;2023-07-16T06:27:57;20.70;61.20
29007;DHT22;16104;48.642;9.008;2023-07-16T06:32:53;20.70;61.30
29007;DHT22;16104;48.642;9.008;2023-07-16T06:37:48;20.70;61.30
29007;DHT22;16104;48.642;9.008;2023-07-16T06:42:44;20.70;61.00
29007;DHT22;16104;48.642;9.008;2023-07-16T06:47:39;20.80;61.00
29007;DHT22;16104;48.642;9.008;2023-07-16T06:52:35;20.80;60.80
29007;DHT22;16104;48.642;9.008;2023-07-16T06:57:30;20.90;61.10
29007;DHT22;16104;48.642;9.008;2023-07-16T07:02:26;21.00;61.00
29007;DHT22;16104;48.642;9.008;2023-07-16T07:07:21;21.10;60.80
29007;DHT22;16104;48.642;9.008;2023-07-16T07:12:17;21.30;60.00
29007;DHT22;16104;48.642;9.008;2023-07-16T07:17:12;21.30;59.60
29007;DHT22;16104;48.642;9.008;2023-07-16T07:22:08;21.40;59.60
29007;DHT22;16104;48.642;9.008;2023-07-16T07:27:03;21.60;59.70
29007;DHT22;16104;48.642;9.008;2023-07-16T07:31:59;21.70;59.10
29007;DHT22;16104;48.642;9.008;2023-07-16T07:36:55;21.90;58.90
29007;DHT22;16104;48.642;9.008;2023-07-16T07:41:50;22.10;58.20
29007;DHT22;16104;48.642;9.008;2023-07-16T07:46:46;22.30;57.40
29007;DHT22;16104;48.642;9.008;2023-07-16T07:51:41;22.40;56.60
29007;DHT22;16104;48.642;9.008;2023-07-16T07:56:37;22.50;55.80
29007;DHT22;16104;48.642;9.008;2023-07-16T08:01:32;22.60;55.50
29007;DHT22;16104;48.642;9.008;2023-07-16T08:06:28;22.70;55.00
29007;DHT22;16104;48.642;9.008;2023-07-16T08:11:23;22.80;56.10
29007;DHT22;16104;48.642;9.008;2023-07-16T08:16:19;23.00;55.80
29007;DHT22;16104;48.642;9.008;2023-07-16T08:21:15;23.30;54.80
29007;DHT22;16104;48.642;9.008;2023-07-16T08:26:15;23.50;54.40
29007;DHT22;16104;48.642;9.008;2023-07-16T08:31:11;23.60;53.50
29007;DHT22;16104;48.642;9.008;2023-07-16T08:36:09;23.80;52.80
29007;DHT22;16104;48.642;9.008;2023-07-16T08:41:05;23.80;52.40
29007;DHT22;16104;48.642;9.008;2023-07-16T08:46:01;23.90;51.80
29007;DHT22;16104;48.642;9.008;2023-07-16T08:51:02;23.90;51.30
29007;DHT22;16104;48.642;9.008;2023-07-16T08:55:57;23.90;50.30
29007;DHT22;16104;48.642;9.008;2023-07-16T09:00:54;23.80;50.90
29007;DHT22;16104;48.642;9.008;2023-07-16T09:05:49;23.80;51.00
29007;DHT22;16104;48.642;9.008;2023-07-16T09:10:53;23.80;50.90
29007;DHT22;16104;48.642;9.008;2023-07-16T09:15:53;24.00;50.90
29007;DHT22;16104;48.642;9.008;2023-07-16T09:20:57;24.10;50.10
29007;DHT22;16104;48.642;9.008;2023-07-16T09:25:54;24.30;48.80
29007;DHT22;16104;48.642;9.008;2023-07-16T09:30:50;24.40;49.30
29007;DHT22;16104;48.642;9.008;2023-07-16T09:35:48;24.50;48.70
29007;DHT22;16104;48.642;9.008;2023-07-16T09:40:45;24.60;48.40
29007;DHT22;16104;48.642;9.008;2023-07-16T09:45:42;24.80;48.00
29007;DHT22;16104;48.642;9.008;2023-07-16T09:50:38;25.00;47.70
29007;DHT22;16104;48.642;9.008;2023-07-16T09:55:35;25.30;47.50
29007;DHT22;16104;48.642;9.008;2023-07-16T10:00:32;25.50;47.10
29007;DHT22;16104;48.642;9.008;2023-07-16T10:05:29;25.60;46.10
29007;DHT22;16104;48.642;9.008;2023-07-16T10:11:02;25.70;46.60
29007;DHT22;16104;48.642;9.008;2023-07-16T10:15:58;25.80;46.10
29007;DHT22;16104;48.642;9.008;2023-07-16T10:20:54;26.00;46.50
29007;DHT22;16104;48.642;9.008;2023-07-16T10:26:02;26.00;45.90
29007;DHT22;16104;48.642;9.008;2023-07-16T10:31:01;26.10;46.50
29007;DHT22;16104;48.642;9.008;2023-07-16T10:35:57;26.20;46.30
29007;DHT22;16104;48.642;9.008;2023-07-16T10:40:56;26.40;46.50
29007;DHT22;16104;48.642;9.008;2023-07-16T10:45:52;26.70;45.90
29007;DHT22;16104;48.642;9.008;2023-07-16T10:50:53;26.90;45.40
29007;DHT22;16104;48.642;9.008;2023-07-16T10:55:50;27.10;44.40
29007;DHT22;16104;48.642;9.008;2023-07-16T11:00:45;27.30;44.80
29007;DHT22;16104;48.642;9.008;2023-07-16T11:05:41;27.50;44.50
29007;DHT22;16104;48.642;9.008;2023-07-16T11:10:36;27.80;44.10
29007;DHT22;16104;48.642;9.008;2023-07-16T11:15:33;28.00;44.30
29007;DHT22;16104;48.642;9.008;2023-07-16T11:20:30;28.10;43.60
29007;DHT22;16104;48.642;9.008;2023-07-16T11:25:25;28.40;42.70
29007;DHT22;16104;48.642;9.008;2023-07-16T11:30:24;28.60;41.20
29007;DHT22;16104;48.642;9.008;2023-07-16T11:35:20;28.60;40.60
29007;DHT22;16104;48.642;9.008;2023-07-16T11:40:18;28.70;41.40
29007;DHT22;16104;48.642;9.008;2023-07-16T11:50:15;28.90;40.30
29007;DHT22;16104;48.642;9.008;2023-07-16T11:55:11;29.10;40.50
29007;DHT22;16104;48.642;9.008;2023-07-16T12:00:06;29.30;40.60
29007;DHT22;16104;48.642;9.008;2023-07-16T12:05:02;29.40;40.00
29007;DHT22;16104;48.642;9.008;2023-07-16T12:09:58;29.60;40.10
29007;DHT22;16104;48.642;9.008;2023-07-16T12:14:54;29.80;40.30
29007;DHT22;16104;48.642;9.008;2023-07-16T12:19:49;30.00;40.80
29007;DHT22;16104;48.642;9.008;2023-07-16T12:24:46;30.30;38.70
29007;DHT22;16104;48.642;9.008;2023-07-16T12:29:42;30.40;38.60
29007;DHT22;16104;48.642;9.008;2023-07-16T12:34:37;30.60;38.20
29007;DHT22;16104;48.642;9.008;2023-07-16T12:39:33;30.60;38.20
29007;DHT22;16104;48.642;9.008;2023-07-16T12:44:29;30.70;37.90
29007;DHT22;16104;48.642;9.008;2023-07-16T12:49:25;30.80;37.50
29007;DHT22;16104;48.642;9.008;2023-07-16T12:54:21;31.00;37.10
29007;DHT22;16104;48.642;9.008;2023-07-16T12:59:16;31.20;37.00
29007;DHT22;16104;48.642;9.008;2023-07-16T13:04:12;31.50;36.40
29007;DHT22;16104;48.642;9.008;2023-07-16T13:09:07;31.70;36.00
29007;DHT22;16104;48.642;9.008;2023-07-16T13:14:03;31.90;35.30
29007;DHT22;16104;48.642;9.008;2023-07-16T13:18:59;32.00;35.20
29007;DHT22;16104;48.642;9.008;2023-07-16T13:23:54;32.10;34.80
29007;DHT22;16104;48.642;9.008;2023-07-16T13:28:50;32.20;33.40
29007;DHT22;16104;48.642;9.008;2023-07-16T13:33:45;32.00;32.90
29007;DHT22;16104;48.642;9.008;2023-07-16T13:38:41;31.80;33.30
29007;DHT22;16104;48.642;9.008;2023-07-16T13:43:36;31.60;33.50
29007;DHT22;16104;48.642;9.008;2023-07-16T13:48:32;31.50;33.70
29007;DHT22;16104;48.642;9.008;2023-07-16T13:53:27;31.60;34.40
29007;DHT22;16104;48.642;9.008;2023-07-16T13:58:23;31.70;34.30
29007;DHT22;16104;48.642;9.008;2023-07-16T14:03:19;31.90;33.90
29007;DHT22;16104;48.642;9.008;2023-07-16T14:08:15;32.10;33.50
29007;DHT22;16104;48.642;9.008;2023-07-16T14:13:10;32.00;32.70
29007;DHT22;16104;48.642;9.008;2023-07-16T14:18:06;31.80;32.70
29007;DHT22;16104;48.642;9.008;2023-07-16T14:23:02;31.60;32.80
29007;DHT22;16104;48.642;9.008;2023-07-16T14:27:58;31.40;31.60
29007;DHT22;16104;48.642;9.008;2023-07-16T14:32:54;31.10;31.80
29007;DHT22;16104;48.642;9.008;2023-07-16T14:37:49;30.90;32.00
29007;DHT22;16104;48.642;9.008;2023-07-16T14:42:45;30.70;32.10
29007;DHT22;16104;48.642;9.008;2023-07-16T14:47:40;30.70;32.40
29007;DHT22;16104;48.642;9.008;2023-07-16T14:52:36;30.70;32.80
29007;DHT22;16104;48.642;9.008;2023-07-16T14:57:32;30.60;32.40
29007;DHT22;16104;48.642;9.008;2023-07-16T15:02:27;30.70;32.20
29007;DHT22;16104;48.642;9.008;2023-07-16T15:07:23;30.50;31.80
29007;DHT22;16104;48.642;9.008;2023-07-16T15:12:18;30.30;31.70
29007;DHT22;16104;48.642;9.008;2023-07-16T15:17:14;30.10;32.70
29007;DHT22;16104;48.642;9.008;2023-07-16T15:22:09;30.10;33.00
29007;DHT22;16104;48.642;9.008;2023-07-16T15:27:05;30.30;33.20
29007;DHT22;16104;48.642;9.008;2023-07-16T15:32:01;30.60;33.30
29007;DHT22;16104;48.642;9.008;2023-07-16T15:36:57;30.80;32.90
29007;DHT22;16104;48.642;9.008;2023-07-16T15:41:52;31.00;32.40
29007;DHT22;16104;48.642;9.008;2023-07-16T15:46:48;30.90;32.20
29007;DHT22;16104;48.642;9.008;2023-07-16T15:51:43;30.80;32.00
29007;DHT22;16104;48.642;9.008;2023-07-16T15:56:39;30.60;32.40
29007;DHT22;16104;48.642;9.008;2023-07-16T16:01:34;30.40;32.20
29007;DHT22;16104;48.642;9.008;2023-07-16T16:06:31;30.30;32.20
29007;DHT22;16104;48.642;9.008;2023-07-16T16:11:26;30.10;32.50
29007;DHT22;16104;48.642;9.008;2023-07-16T16:16:22;30.10;33.30
29007;DHT22;16104;48.642;9.008;2023-07-16T16:21:18;30.20;33.20
29007;DHT22;16104;48.642;9.008;2023-07-16T16:26:14;30.30;33.20
29007;DHT22;16104;48.642;9.008;2023-07-16T16:31:09;30.20;33.20
29007;DHT22;16104;48.642;9.008;2023-07-16T16:36:11;30.20;33.40
29007;DHT22;16104;48.642;9.008;2023-07-16T16:41:06;30.00;33.20
29007;DHT22;16104;48.642;9.008;2023-07-16T16:46:05;29.80;33.20
29007;DHT22;16104;48.642;9.008;2023-07-16T16:51:01;29.60;33.50
29007;DHT22;16104;48.642;9.008;2023-07-16T16:55:58;29.50;33.60
29007;DHT22;16104;48.642;9.008;2023-07-16T17:00:54;29.40;33.80
29007;DHT22;16104;48.642;9.008;2023-07-16T17:05:51;29.20;33.90
29007;DHT22;16104;48.642;9.008;2023-07-16T17:10:55;29.10;34.40
29007;DHT22;16104;48.642;9.008;2023-07-16T17:15:51;29.00;34.30
29007;DHT22;16104;48.642;9.008;2023-07-16T17:20:47;28.90;34.30
29007;DHT22;16104;48.642;9.008;2023-07-16T17:25:43;28.80;34.50
29007;DHT22;16104;48.642;9.008;2023-07-16T17:30:39;28.70;34.80
29007;DHT22;16104;48.642;9.008;2023-07-16T17:35:34;28.60;35.20
29007;DHT22;16104;48.642;9.008;2023-07-16T17:40:30;28.50;35.60
29007;DHT22;16104;48.642;9.008;2023-07-16T17:45:25;28.40;35.30
29007;DHT22;16104;48.642;9.008;2023-07-16T17:50:21;28.30;35.30
29007;DHT22;16104;48.642;9.008;2023-07-16T17:55:16;28.20;35.40
29007;DHT22;16104;48.642;9.008;2023-07-16T18:00:12;28.20;35.30
29007;DHT22;16104;48.642;9.008;2023-07-16T18:05:09;28.00;35.60
29007;DHT22;16104;48.642;9.008;2023-07-16T18:10:05;27.90;36.20
29007;DHT22;16104;48.642;9.008;2023-07-16T18:15:02;27.90;36.90
29007;DHT22;16104;48.642;9.008;2023-07-16T18:19:57;27.80;37.20
29007;DHT22;16104;48.642;9.008;2023-07-16T18:24:53;27.70;37.60
29007;DHT22;16104;48.642;9.008;2023-07-16T18:29:48;27.60;37.70
29007;DHT22;16104;48.642;9.008;2023-07-16T18:34:44;27.40;37.80
29007;DHT22;16104;48.642;9.008;2023-07-16T18:39:39;27.30;37.50
29007;DHT22;16104;48.642;9.008;2023-07-16T18:44:35;27.20;37.60
29007;DHT22;16104;48.642;9.008;2023-07-16T18:49:30;27.10;38.00
29007;DHT22;16104;48.642;9.008;2023-07-16T18:54:26;27.00;37.90
29007;DHT22;16104;48.642;9.008;2023-07-16T18:59:21;26.90;38.10
29007;DHT22;16104;48.642;9.008;2023-07-16T19:04:17;26.80;38.20
29007;DHT22;16104;48.642;9.008;2023-07-16T19:09:13;26.70;38.70
29007;DHT22;16104;48.642;9.008;2023-07-16T19:14:08;26.60;39.10
29007;DHT22;16104;48.642;9.008;2023-07-16T19:19:05;26.50;38.70
29007;DHT22;16104;48.642;9.008;2023-07-16T19:24:01;26.50;38.70
29007;DHT22;16104;48.642;9.008;2023-07-16T19:28:56;26.40;38.90
29007;DHT22;16104;48.642;9.008;2023-07-16T19:33:52;26.30;38.90
29007;DHT22;16104;48.642;9.008;2023-07-16T19:38:50;26.20;38.70
29007;DHT22;16104;48.642;9.008;2023-07-16T19:43:45;26.10;39.00
29007;DHT22;16104;48.642;9.008;2023-07-16T19:48:41;26.00;39.10
29007;DHT22;16104;48.642;9.008;2023-07-16T19:53:36;25.90;39.10
29007;DHT22;16104;48.642;9.008;2023-07-16T19:58:32;25.80;39.10
29007;DHT22;16104;48.642;9.008;2023-07-16T20:03:28;25.80;39.30
29007;DHT22;16104;48.642;9.008;2023-07-16T20:08:23;25.70;39.40
29007;DHT22;16104;48.642;9.008;2023-07-16T20:13:19;25.70;39.50
29007;DHT22;16104;48.642;9.008;2023-07-16T20:18:15;25.60;39.60
29007;DHT22;16104;48.642;9.008;2023-07-16T20:23:12;25.50;39.90
29007;DHT22;16104;48.642;9.008;2023-07-16T20:28:09;25.50;40.40
29007;DHT22;16104;48.642;9.008;2023-07-16T20:33:05;25.40;40.40
29007;DHT22;16104;48.642;9.008;2023-07-16T20:38:01;25.40;40.50
29007;DHT22;16104;48.642;9.008;2023-07-16T20:42:57;25.30;40.30
29007;DHT22;16104;48.642;9.008;2023-07-16T20:47:54;25.30;40.40
29007;DHT22;16104;48.642;9.008;2023-07-16T20:52:54;25.20;40.70
29007;DHT22;16104;48.642;9.008;2023-07-16T20:57:50;25.20;40.70
29007;DHT22;16104;48.642;9.008;2023-07-16T21:02:51;25.10;40.80
29007;DHT22;16104;48.642;9.008;2023-07-16T21:07:46;25.00;41.10
29007;DHT22;16104;48.642;9.008;2023-07-16T21:12:43;25.00;41.50
29007;DHT22;16104;48.642;9.008;2023-07-16T21:17:40;25.00;41.60
29007;DHT22;16104;48.642;9.008;2023-07-16T21:22:38;24.90;41.40
29007;DHT22;16104;48.642;9.008;2023-07-16T21:27:46;24.90;41.50
29007;DHT22;16104;48.642;9.008;2023-07-16T21:32:42;24.90;41.70
29007;DHT22;16104;48.642;9.008;2023-07-16T21:37:39;24.80;41.80
29007;DHT22;16104;48.642;9.008;2023-07-16T21:42:35;24.80;42.80
29007;DHT22;16104;48.642;9.008;2023-07-16T21:47:30;24.80;43.10
29007;DHT22;16104;48.642;9.008;2023-07-16T21:52:26;24.70;42.70
29007;DHT22;16104;48.642;9.008;2023-07-16T21:57:21;24.70;43.40
29007;DHT22;16104;48.642;9.008;2023-07-16T22:02:17;24.60;43.20
29007;DHT22;16104;48.642;9.008;2023-07-16T22:07:13;24.60;43.20
29007;DHT22;16104;48.642;9.008;2023-07-16T22:12:08;24.50;44.40
29007;DHT22;16104;48.642;9.008;2023-07-16T22:17:04;24.60;44.20
29007;DHT22;16104;48.642;9.008;2023-07-16T22:22:00;24.50;44.50
29007;DHT22;16104;48.642;9.008;2023-07-16T22:26:56;24.40;44.50
29007;DHT22;16104;48.642;9.008;2023-07-16T22:31:52;24.40;44.70
29007;DHT22;16104;48.642;9.008;2023-07-16T22:36:48;24.30;44.80
29007;DHT22;16104;48.642;9.008;2023-07-16T22:41:44;24.30;45.10
29007;DHT22;16104;48.642;9.008;2023-07-16T22:46:39;24.20;45.30
29007;DHT22;16104;48.642;9.008;2023-07-16T22:51:35;24.10;45.40
29007;DHT22;16104;48.642;9.008;2023-07-16T22:56:30;24.10;46.10
29007;DHT22;16104;48.642;9.008;2023-07-16T23:01:26;24.10;46.40
29007;DHT22;16104;48.642;9.008;2023-07-16T23:06:22;24.00;47.00
29007;DHT22;16104;48.642;9.008;2023-07-16T23:11:17;23.90;46.80
29007;DHT22;16104;48.642;9.008;2023-07-16T23:16:13;23.80;47.00
29007;DHT22;16104;48.642;9.008;2023-07-16T23:21:08;23.70;47.10
29007;DHT22;16104;48.642;9.008;2023-07-16T23:26:04;23.60;47.10
29007;DHT22;16104;48.642;9.008;2023-07-16T23:30:59;23.60;47.20
29007;DHT22;16104;48.642;9.008;2023-07-16T23:35:55;23.50;47.30
29007;DHT22;16104;48.642;9.008;2023-07-16T23:40:51;23.50;47.10
29007;DHT22;16104;48.642;9.008;2023-07-16T23:45:47;23.40;47.30
29007;DHT22;16104;48.642;9.008;2023-07-16T23:50:42;23.30;47.00
29007;DHT22;16104;48.642;9.008;2023-07-16T23:55:38;23.30;47.20
